Potomac, Illinois
Current Conditions -  °F | °C
As of 12:15 AM on Monday 26 Jan 2015 (Local Time) from KDNV Reporting Station
Overcast Overcast  
Wind Chill: 15°   Ceiling: 1400
Heat Index: 26°   Visibility: 10mi
Dew Point: 23°   Wind: 12mph
Humidity: 89%   Direction: 10°N
Pressure: 29.91"   Gusts: NA
Location:  40.31°N, 87.8°W
Report Text: KDNV 260615Z AUTO 01010KT 10SM OVC014 M03/M05 A2991 RMK AO2 T10351050
Loading
Personal Weather Stations






























Interactive Weather Map New forecast layout! Learn more

10-Day Weather Forecast

Advertisements
Track Severe Weather on mobile